createdAt,value
2018-03-22T00:02:26.743Z,84.50
2018-03-22T00:04:52.915Z,84.40
2018-03-22T00:07:19.856Z,83.90
2018-03-22T00:09:46.801Z,84.30
2018-03-22T00:12:12.999Z,83.80
2018-03-22T00:14:39.236Z,84.00
2018-03-22T00:17:05.421Z,84.30
2018-03-22T00:19:31.659Z,84.10
2018-03-22T00:21:57.830Z,84.10
2018-03-22T00:24:24.008Z,84.00
2018-03-22T00:26:51.002Z,83.60
2018-03-22T00:29:17.170Z,83.40
2018-03-22T00:31:43.360Z,83.30
2018-03-22T00:34:09.546Z,83.30
2018-03-22T00:36:35.743Z,83.50
2018-03-22T00:39:01.922Z,83.50
2018-03-22T00:41:28.866Z,83.60
2018-03-22T00:43:55.034Z,83.50
2018-03-22T00:46:21.247Z,83.20
2018-03-22T00:48:48.150Z,84.50
2018-03-22T00:51:14.306Z,84.40
2018-03-22T00:53:41.238Z,84.60
2018-03-22T00:56:07.457Z,84.50
2018-03-22T00:58:33.633Z,84.70
2018-03-22T01:01:00.539Z,84.70
2018-03-22T01:03:26.794Z,84.70
2018-03-22T01:05:53.031Z,84.50
2018-03-22T01:08:19.960Z,84.20
2018-03-22T01:10:46.213Z,84.20
2018-03-22T01:13:12.401Z,84.20
2018-03-22T01:15:38.599Z,83.90
2018-03-22T01:18:05.543Z,84.70
2018-03-22T01:20:32.446Z,84.00
2018-03-22T01:22:58.608Z,84.00
2018-03-22T01:25:24.828Z,84.10
2018-03-22T01:27:50.999Z,84.10
2018-03-22T01:30:30.424Z,84.30
2018-03-22T01:32:57.339Z,84.10
2018-03-22T01:35:23.536Z,84.00
2018-03-22T01:37:49.751Z,84.10
2018-03-22T01:40:16.677Z,84.60
2018-03-22T01:42:44.351Z,84.60
2018-03-22T01:45:10.547Z,84.60
2018-03-22T01:47:36.782Z,84.70
2018-03-22T01:50:02.969Z,84.60
2018-03-22T01:52:29.862Z,85.30
2018-03-22T01:54:56.063Z,85.20
2018-03-22T01:57:22.240Z,85.70
2018-03-22T01:59:48.440Z,85.30
2018-03-22T02:02:14.696Z,85.40
2018-03-22T02:04:40.888Z,85.50
2018-03-22T02:07:07.103Z,85.40
2018-03-22T02:09:34.047Z,85.50
2018-03-22T02:12:00.298Z,85.30
2018-03-22T02:14:27.212Z,85.00
2018-03-22T02:16:53.388Z,84.90
2018-03-22T02:19:19.606Z,84.70
2018-03-22T02:21:46.512Z,84.80
2018-03-22T02:24:12.687Z,84.80
2018-03-22T02:26:39.671Z,85.00
2018-03-22T02:29:05.839Z,84.90
2018-03-22T02:31:32.013Z,85.00
2018-03-22T02:33:58.444Z,85.20
2018-03-22T02:36:25.360Z,85.60
2018-03-22T02:38:51.535Z,85.60
2018-03-22T02:41:18.643Z,85.80
2018-03-22T02:43:44.824Z,85.60
2018-03-22T02:46:11.003Z,85.30
2018-03-22T02:48:37.250Z,85.20
2018-03-22T02:51:03.507Z,85.40
2018-03-22T02:53:31.131Z,85.70
2018-03-22T02:55:57.323Z,85.60
2018-03-22T02:58:23.517Z,85.60
2018-03-22T03:00:49.697Z,85.30
2018-03-22T03:03:15.925Z,85.00
2018-03-22T03:05:42.143Z,85.30
2018-03-22T03:08:09.070Z,85.30
2018-03-22T03:10:35.248Z,85.30
2018-03-22T03:13:01.444Z,85.80
2018-03-22T03:15:28.383Z,85.80
2018-03-22T03:17:54.600Z,85.80
2018-03-22T03:20:20.774Z,85.00
2018-03-22T03:22:47.688Z,85.80
2018-03-22T03:25:13.904Z,85.80
2018-03-22T03:27:40.107Z,85.50
2018-03-22T03:30:06.317Z,85.20
2018-03-22T03:32:33.240Z,85.40
2018-03-22T03:34:59.416Z,85.40
2018-03-22T03:37:25.619Z,85.40
2018-03-22T03:39:52.571Z,86.80
2018-03-22T03:42:18.788Z,85.90
2018-03-22T03:44:44.961Z,86.80
2018-03-22T03:47:11.892Z,86.60
2018-03-22T03:49:38.829Z,86.10
2018-03-22T03:52:05.004Z,85.80
2018-03-22T03:54:31.175Z,86.10
2018-03-22T03:56:57.367Z,86.20
2018-03-22T03:59:23.583Z,86.30
2018-03-22T04:01:50.532Z,86.20
2018-03-22T04:04:17.454Z,86.10
2018-03-22T04:06:43.662Z,86.00
2018-03-22T04:09:09.842Z,86.10
2018-03-22T04:11:36.787Z,85.50
2018-03-22T04:14:03.762Z,86.00
2018-03-22T04:16:29.949Z,86.00
2018-03-22T04:18:56.143Z,86.40
2018-03-22T04:21:22.355Z,86.50
2018-03-22T04:23:48.547Z,86.50
2018-03-22T04:26:14.722Z,86.40
2018-03-22T04:28:40.936Z,86.30
2018-03-22T04:31:07.866Z,87.30
2018-03-22T04:33:34.077Z,87.00
2018-03-22T04:36:00.284Z,87.20
2018-03-22T04:38:26.440Z,86.90
2018-03-22T04:40:52.623Z,86.90
2018-03-22T04:43:19.563Z,87.10
2018-03-22T04:45:46.483Z,87.20
2018-03-22T04:48:12.684Z,87.00
2018-03-22T04:50:38.842Z,87.10
2018-03-22T04:53:05.018Z,86.60
2018-03-22T04:55:31.950Z,86.30
2018-03-22T04:57:58.183Z,86.20
2018-03-22T05:00:24.398Z,86.40
2018-03-22T05:02:50.568Z,86.10
2018-03-22T05:05:17.585Z,85.50
2018-03-22T05:07:43.726Z,85.40
2018-03-22T05:10:09.899Z,85.60
2018-03-22T05:12:36.094Z,86.00
2018-03-22T05:15:02.284Z,86.00
2018-03-22T05:17:28.559Z,86.30
2018-03-22T05:19:54.755Z,85.90
2018-03-22T05:22:20.922Z,85.60
2018-03-22T05:24:47.898Z,86.20
2018-03-22T05:27:14.804Z,86.60
2018-03-22T05:29:41.003Z,86.40
2018-03-22T05:32:07.255Z,86.40
2018-03-22T05:34:33.424Z,86.20
2018-03-22T05:36:59.687Z,85.70
2018-03-22T05:39:25.921Z,85.60
2018-03-22T05:41:52.832Z,85.40
2018-03-22T05:44:19.780Z,85.50
2018-03-22T05:46:47.502Z,86.40
2018-03-22T05:49:13.680Z,85.70
2018-03-22T05:51:39.895Z,86.00
2018-03-22T05:54:06.082Z,86.00
2018-03-22T05:56:33.011Z,85.60
2018-03-22T05:58:59.179Z,85.50
2018-03-22T06:01:25.408Z,84.80
2018-03-22T06:03:51.565Z,84.80
2018-03-22T06:06:17.739Z,84.80
2018-03-22T06:08:43.996Z,85.40
2018-03-22T06:11:10.937Z,85.90
2018-03-22T06:13:37.154Z,85.70
2018-03-22T06:16:03.318Z,85.20
2018-03-22T06:18:30.243Z,85.00
2018-03-22T06:20:56.463Z,84.90
2018-03-22T06:23:22.639Z,85.10
2018-03-22T06:25:48.812Z,84.90
2018-03-22T06:28:14.994Z,85.30
2018-03-22T06:30:41.169Z,85.20
2018-03-22T06:33:07.380Z,85.50
2018-03-22T06:35:33.557Z,85.40
2018-03-22T06:37:59.736Z,85.50
2018-03-22T06:40:25.939Z,86.20
2018-03-22T06:42:52.107Z,85.50
2018-03-22T06:45:18.276Z,85.30
2018-03-22T06:47:44.473Z,85.00
2018-03-22T06:50:10.655Z,85.10
2018-03-22T06:52:36.878Z,84.40
2018-03-22T06:55:03.046Z,83.60
2018-03-22T06:57:29.955Z,83.50
2018-03-22T06:59:56.178Z,83.50
2018-03-22T07:02:22.339Z,82.90
2018-03-22T07:04:48.516Z,82.30
2018-03-22T07:07:14.739Z,82.20
2018-03-22T07:09:40.918Z,82.10
2018-03-22T07:12:07.078Z,81.70
2018-03-22T07:14:33.272Z,81.50
2018-03-22T07:16:59.505Z,81.30
2018-03-22T07:19:26.419Z,81.60
2018-03-22T07:21:52.600Z,81.40
2018-03-22T07:24:18.791Z,81.80
2018-03-22T07:26:44.998Z,80.90
2018-03-22T07:29:11.900Z,80.20
2018-03-22T07:31:38.046Z,79.60
2018-03-22T07:34:04.266Z,79.00
2018-03-22T07:36:30.428Z,78.70
2018-03-22T07:38:56.585Z,77.60
2018-03-22T07:41:23.507Z,79.00
2018-03-22T07:43:49.702Z,78.90
2018-03-22T07:46:15.890Z,79.10
2018-03-22T07:48:42.793Z,78.90
2018-03-22T07:51:09.027Z,78.80
2018-03-22T07:53:35.183Z,79.10
2018-03-22T07:56:01.383Z,79.00
2018-03-22T07:58:27.594Z,78.60
2018-03-22T08:00:53.775Z,77.30
2018-03-22T08:03:19.974Z,77.00
2018-03-22T08:05:46.228Z,76.70
2018-03-22T08:08:13.121Z,77.40
2018-03-22T08:10:40.101Z,76.10
2018-03-22T08:13:06.282Z,76.00
2018-03-22T08:15:32.463Z,75.50
2018-03-22T08:17:58.675Z,74.10
2018-03-22T08:20:25.614Z,72.90
2018-03-22T08:22:51.804Z,72.90
2018-03-22T08:25:17.980Z,73.00
2018-03-22T08:27:44.922Z,73.10
2018-03-22T08:30:11.096Z,72.40
2018-03-22T08:32:37.346Z,71.70
2018-03-22T08:35:03.498Z,71.70
2018-03-22T08:37:29.706Z,71.10
2018-03-22T08:39:55.873Z,70.70
2018-03-22T08:42:22.026Z,69.50
2018-03-22T08:44:48.986Z,68.00
2018-03-22T08:47:15.931Z,66.80
2018-03-22T08:49:42.839Z,66.00
2018-03-22T08:52:09.084Z,65.90
2018-03-22T08:54:35.247Z,65.40
2018-03-22T08:57:02.146Z,66.40
2018-03-22T08:59:28.360Z,66.30
2018-03-22T09:01:54.544Z,66.10
2018-03-22T09:04:20.710Z,66.80
2018-03-22T09:06:46.914Z,67.60
2018-03-22T09:09:13.099Z,67.80
2018-03-22T09:11:39.291Z,66.60
2018-03-22T09:14:06.209Z,68.60
2018-03-22T09:16:32.418Z,68.50
2018-03-22T09:18:58.623Z,66.00
2018-03-22T09:21:24.834Z,66.50
2018-03-22T09:23:51.799Z,67.00
2018-03-22T09:26:18.736Z,66.50
2018-03-22T09:28:45.687Z,66.70
2018-03-22T09:31:12.613Z,66.10
2018-03-22T09:33:38.776Z,66.00
2018-03-22T09:36:05.716Z,65.80
2018-03-22T09:38:32.669Z,64.50
2018-03-22T09:40:58.830Z,64.30
2018-03-22T09:43:25.014Z,64.00
2018-03-22T09:45:51.220Z,64.80
2018-03-22T09:48:17.373Z,65.00
2018-03-22T09:50:43.595Z,64.80
2018-03-22T09:53:09.850Z,65.90
2018-03-22T09:55:36.024Z,66.30
2018-03-22T09:58:02.359Z,65.00
2018-03-22T10:00:28.553Z,63.90
2018-03-22T10:02:54.733Z,65.20
2018-03-22T10:05:20.938Z,66.90
2018-03-22T10:07:47.847Z,67.30
2018-03-22T10:10:14.080Z,67.20
2018-03-22T10:12:40.276Z,67.30
2018-03-22T10:15:06.464Z,67.50
2018-03-22T10:17:32.664Z,67.00
2018-03-22T10:19:58.849Z,65.90
2018-03-22T10:22:25.782Z,63.80
2018-03-22T10:24:51.991Z,63.80
2018-03-22T10:27:18.149Z,63.50
2018-03-22T10:29:44.314Z,62.40
2018-03-22T10:32:10.515Z,63.80
2018-03-22T10:34:36.679Z,65.50
2018-03-22T10:37:02.925Z,65.70
2018-03-22T10:39:29.092Z,64.40
2018-03-22T10:41:55.275Z,64.30
2018-03-22T10:44:21.463Z,65.70
2018-03-22T10:46:47.660Z,65.00
2018-03-22T10:49:13.882Z,65.70
2018-03-22T10:51:40.037Z,65.10
2018-03-22T10:54:06.195Z,66.60
2018-03-22T10:56:32.405Z,67.50
2018-03-22T10:58:58.571Z,65.40
2018-03-22T11:01:30.982Z,64.60
2018-03-22T11:03:57.163Z,65.70
2018-03-22T11:06:23.375Z,66.30
2018-03-22T11:08:49.582Z,67.30
2018-03-22T11:11:15.756Z,66.50
2018-03-22T11:13:41.998Z,65.90
2018-03-22T11:16:08.154Z,65.30
2018-03-22T11:18:35.054Z,64.40
2018-03-22T11:21:01.261Z,64.30
2018-03-22T11:23:27.428Z,63.60
2018-03-22T11:25:53.597Z,66.50
2018-03-22T11:28:19.816Z,65.40
2018-03-22T11:30:45.987Z,64.50
2018-03-22T11:33:12.200Z,63.40
2018-03-22T11:35:39.115Z,65.00
2018-03-22T11:38:05.300Z,64.90
2018-03-22T11:40:31.510Z,64.60
2018-03-22T11:42:58.418Z,66.60
2018-03-22T11:45:24.591Z,66.50
2018-03-22T11:47:51.527Z,69.30
2018-03-22T11:50:17.732Z,68.40
2018-03-22T11:52:43.929Z,68.70
2018-03-22T11:55:10.186Z,68.10
2018-03-22T11:57:37.095Z,68.40
2018-03-22T12:00:03.302Z,68.30
2018-03-22T12:02:29.473Z,70.10
2018-03-22T12:04:55.682Z,69.40
2018-03-22T12:07:21.903Z,69.90
2018-03-22T12:09:48.031Z,69.80
2018-03-22T12:12:14.248Z,68.80
2018-03-22T12:14:40.423Z,68.10
2018-03-22T12:17:07.327Z,70.90
2018-03-22T12:19:33.524Z,70.70
2018-03-22T12:21:59.694Z,71.90
2018-03-22T12:24:25.953Z,72.10
2018-03-22T12:26:52.083Z,72.00
2018-03-22T12:29:18.265Z,73.70
2018-03-22T12:31:44.494Z,73.90
2018-03-22T12:34:10.651Z,74.30
2018-03-22T12:36:36.817Z,74.40
2018-03-22T12:39:03.042Z,75.10
2018-03-22T12:41:29.204Z,75.10
2018-03-22T12:43:56.154Z,73.30
2018-03-22T12:46:23.055Z,73.80
2018-03-22T12:48:49.223Z,73.70
2018-03-22T12:51:15.423Z,73.90
2018-03-22T12:53:41.603Z,75.00
2018-03-22T12:56:07.828Z,75.20
2018-03-22T12:58:34.731Z,76.10
2018-03-22T13:01:00.884Z,76.10
2018-03-22T13:03:27.096Z,75.30
2018-03-22T13:05:53.270Z,75.80
2018-03-22T13:08:20.206Z,75.80
2018-03-22T13:10:46.410Z,75.00
2018-03-22T13:13:12.606Z,77.10
2018-03-22T13:15:38.807Z,77.10
2018-03-22T13:18:04.981Z,76.60
2018-03-22T13:20:31.223Z,76.20
2018-03-22T13:22:57.395Z,75.80
2018-03-22T13:25:23.576Z,75.50
2018-03-22T13:27:49.999Z,74.60
2018-03-22T13:30:16.911Z,74.80
2018-03-22T13:32:43.076Z,74.70
2018-03-22T13:35:09.991Z,73.60
2018-03-22T13:37:36.243Z,73.60
2018-03-22T13:40:02.427Z,73.70
2018-03-22T13:42:28.604Z,75.10
2018-03-22T13:44:54.802Z,73.70
2018-03-22T13:47:21.009Z,72.90
2018-03-22T13:49:47.167Z,71.50
2018-03-22T13:52:13.327Z,71.50
2018-03-22T13:54:39.536Z,72.80
2018-03-22T13:57:05.757Z,71.80
2018-03-22T13:59:31.967Z,71.20
2018-03-22T14:01:58.139Z,71.60
2018-03-22T14:04:24.335Z,70.70
2018-03-22T14:06:50.523Z,70.70
2018-03-22T14:09:16.730Z,69.70
2018-03-22T14:11:42.887Z,70.00
2018-03-22T14:14:09.046Z,70.70
2018-03-22T14:16:36.004Z,71.20
2018-03-22T14:19:02.920Z,73.20
2018-03-22T14:21:29.115Z,73.20
2018-03-22T14:23:55.332Z,73.60
2018-03-22T14:26:21.516Z,73.90
2018-03-22T14:28:47.690Z,73.20
2018-03-22T14:31:13.884Z,75.50
2018-03-22T14:33:40.062Z,76.40
2018-03-22T14:36:06.276Z,76.70
2018-03-22T14:38:33.192Z,76.50
2018-03-22T14:40:59.350Z,76.40
2018-03-22T14:43:26.294Z,76.20
2018-03-22T14:45:52.491Z,76.00
2018-03-22T14:48:18.654Z,75.60
2018-03-22T14:50:45.591Z,75.40
2018-03-22T14:53:18.839Z,75.70
2018-03-22T14:55:45.035Z,75.00
2018-03-22T14:58:11.203Z,75.80
2018-03-22T15:00:37.450Z,75.90
2018-03-22T15:03:04.359Z,75.90
2018-03-22T15:05:31.259Z,75.60
2018-03-22T15:07:57.460Z,75.60
2018-03-22T15:10:23.665Z,76.10
2018-03-22T15:12:49.799Z,76.50
2018-03-22T15:15:16.018Z,76.90
2018-03-22T15:17:42.241Z,77.60
2018-03-22T15:20:08.419Z,77.90
2018-03-22T15:22:34.635Z,77.90
2018-03-22T15:25:01.536Z,78.40
2018-03-22T15:27:27.728Z,78.30
2018-03-22T15:29:53.939Z,78.10
2018-03-22T15:32:20.107Z,78.80
2018-03-22T15:34:46.311Z,77.80
2018-03-22T15:37:12.472Z,77.50
2018-03-22T15:39:38.655Z,78.20
2018-03-22T15:42:04.886Z,78.10
2018-03-22T15:44:31.140Z,77.70
2018-03-22T15:46:57.307Z,77.60
2018-03-22T15:49:23.463Z,78.40
2018-03-22T15:51:49.674Z,78.10
2018-03-22T15:54:15.844Z,77.90
2018-03-22T15:56:42.064Z,77.30
2018-03-22T15:59:08.225Z,77.20
2018-03-22T16:01:35.167Z,78.10
2018-03-22T16:04:01.356Z,78.00
2018-03-22T16:06:27.583Z,78.40
2018-03-22T16:08:54.475Z,79.20
2018-03-22T16:11:20.657Z,79.00
2018-03-22T16:13:46.856Z,78.80
2018-03-22T16:16:13.060Z,79.20
2018-03-22T16:18:39.285Z,79.60
2018-03-22T16:21:05.451Z,80.30
2018-03-22T16:23:31.636Z,80.70
2018-03-22T16:25:57.827Z,80.10
2018-03-22T16:28:24.030Z,80.70
2018-03-22T16:30:50.187Z,80.60
2018-03-22T16:33:16.460Z,79.80
2018-03-22T16:35:42.651Z,80.00
2018-03-22T16:38:08.826Z,80.50
2018-03-22T16:40:35.072Z,79.90
2018-03-22T16:43:01.220Z,80.20
2018-03-22T16:45:27.375Z,80.70
2018-03-22T16:47:53.581Z,80.20
2018-03-22T16:50:19.760Z,80.70
2018-03-22T16:52:46.666Z,81.30
2018-03-22T16:55:12.855Z,81.10
2018-03-22T16:57:39.798Z,81.10
2018-03-22T17:00:06.827Z,81.30
2018-03-22T17:02:33.004Z,81.10
2018-03-22T17:04:59.186Z,81.10
2018-03-22T17:07:25.423Z,81.10
2018-03-22T17:09:52.323Z,81.30
2018-03-22T17:12:18.491Z,81.30
2018-03-22T17:14:44.688Z,81.40
2018-03-22T17:17:10.878Z,81.90
2018-03-22T17:19:37.083Z,81.70
2018-03-22T17:22:03.303Z,82.10
2018-03-22T17:24:29.494Z,81.90
2018-03-22T17:26:56.416Z,82.70
2018-03-22T17:29:22.696Z,82.70
2018-03-22T17:31:48.863Z,82.70
2018-03-22T17:34:15.042Z,82.80
2018-03-22T17:36:41.997Z,82.70
2018-03-22T17:39:08.894Z,82.60
2018-03-22T17:41:35.211Z,82.60
2018-03-22T17:44:01.388Z,82.60
2018-03-22T17:46:27.592Z,82.90
2018-03-22T17:48:53.802Z,83.30
2018-03-22T17:51:19.991Z,83.20
2018-03-22T17:53:46.193Z,82.90
2018-03-22T17:56:12.403Z,82.70
2018-03-22T17:58:38.574Z,82.90
2018-03-22T18:01:04.779Z,83.40
2018-03-22T18:03:30.977Z,83.50
2018-03-22T18:05:57.917Z,83.80
2018-03-22T18:08:24.901Z,83.40
2018-03-22T18:10:51.796Z,83.40
2018-03-22T18:13:17.983Z,83.40
2018-03-22T18:15:44.183Z,83.40
2018-03-22T18:18:11.103Z,83.70
2018-03-22T18:20:37.461Z,83.60
2018-03-22T18:23:03.652Z,83.40
2018-03-22T18:25:29.827Z,83.30
2018-03-22T18:27:56.784Z,83.70
2018-03-22T18:30:23.704Z,82.90
2018-03-22T18:32:49.943Z,82.80
2018-03-22T18:35:16.142Z,82.80
2018-03-22T18:37:42.331Z,82.90
2018-03-22T18:40:09.276Z,83.30
2018-03-22T18:42:35.515Z,83.30
2018-03-22T18:45:02.548Z,83.50
2018-03-22T18:47:28.762Z,83.40
2018-03-22T18:49:54.919Z,83.70
2018-03-22T18:52:21.159Z,83.80
2018-03-22T18:54:47.354Z,83.00
2018-03-22T18:57:13.518Z,82.90
2018-03-22T18:59:39.964Z,83.00
2018-03-22T19:02:06.420Z,83.60
2018-03-22T19:04:32.894Z,83.10
2018-03-22T19:06:59.350Z,83.20
2018-03-22T19:09:25.904Z,83.10
2018-03-22T19:11:52.412Z,82.80
2018-03-22T19:14:19.495Z,82.90
2018-03-22T19:16:45.672Z,82.80
2018-03-22T19:19:11.884Z,83.20
2018-03-22T19:21:38.935Z,83.30
2018-03-22T19:24:05.348Z,83.10
2018-03-22T19:26:31.542Z,83.30
2018-03-22T19:28:57.718Z,83.10
2018-03-22T19:31:23.951Z,83.10
2018-03-22T19:33:50.218Z,83.30
2018-03-22T19:36:16.395Z,83.30
2018-03-22T19:38:42.776Z,83.30
2018-03-22T19:41:09.730Z,83.70
2018-03-22T19:43:36.706Z,83.60
2018-03-22T19:46:02.955Z,83.60
2018-03-22T19:48:29.122Z,83.40
2018-03-22T19:50:55.336Z,83.10
2018-03-22T19:53:21.612Z,83.80
2018-03-22T19:55:48.610Z,84.70
2018-03-22T19:58:14.944Z,84.70
2018-03-22T20:00:41.127Z,84.90
2018-03-22T20:03:08.167Z,85.30
2018-03-22T20:05:35.135Z,86.30
2018-03-22T20:08:01.516Z,85.70
2018-03-22T20:10:27.706Z,85.80
2018-03-22T20:12:53.954Z,85.60
2018-03-22T20:15:20.162Z,85.40
2018-03-22T20:17:46.372Z,85.50
2018-03-22T20:20:12.563Z,85.20
2018-03-22T20:22:38.971Z,85.30
2018-03-22T20:25:05.941Z,85.90
2018-03-22T20:27:32.196Z,85.70
2018-03-22T20:29:58.394Z,85.80
2018-03-22T20:32:24.603Z,85.80
2018-03-22T20:34:52.282Z,86.00
2018-03-22T20:37:19.183Z,86.50
2018-03-22T20:39:45.390Z,86.40
2018-03-22T20:42:11.611Z,86.60
2018-03-22T20:44:37.805Z,86.80
2018-03-22T20:47:05.527Z,86.90
2018-03-22T20:49:31.706Z,86.80
2018-03-22T20:51:57.879Z,87.00
2018-03-22T20:54:24.117Z,87.00
2018-03-22T20:56:51.152Z,87.10
2018-03-22T20:59:18.063Z,86.90
2018-03-22T21:01:44.328Z,86.90
2018-03-22T21:04:11.285Z,87.10
2018-03-22T21:06:38.224Z,87.90
2018-03-22T21:09:05.211Z,87.30
2018-03-22T21:11:31.423Z,87.20
2018-03-22T21:13:57.671Z,87.30
2018-03-22T21:16:23.867Z,87.70
2018-03-22T21:18:50.796Z,87.60
2018-03-22T21:21:17.003Z,87.50
2018-03-22T21:23:43.238Z,87.60
2018-03-22T21:26:09.443Z,87.80
2018-03-22T21:28:36.380Z,88.30
2018-03-22T21:31:03.286Z,88.30
2018-03-22T21:33:29.508Z,88.20
2018-03-22T21:35:55.674Z,88.40
2018-03-22T21:38:21.878Z,88.40
2018-03-22T21:40:48.065Z,88.70
2018-03-22T21:43:14.996Z,88.90
2018-03-22T21:45:41.956Z,88.80
2018-03-22T21:48:08.906Z,88.40
2018-03-22T21:50:48.268Z,88.00
2018-03-22T21:53:14.446Z,87.90
2018-03-22T21:55:40.668Z,87.70
2018-03-22T21:58:06.879Z,87.20
2018-03-22T22:00:33.070Z,87.20
2018-03-22T22:03:00.037Z,86.50
2018-03-22T22:05:26.207Z,86.50
2018-03-22T22:07:52.419Z,87.20
2018-03-22T22:10:18.626Z,86.80
2018-03-22T22:12:45.590Z,87.00
2018-03-22T22:15:11.803Z,87.00
2018-03-22T22:17:38.727Z,86.60
2018-03-22T22:20:04.915Z,86.50
2018-03-22T22:22:31.142Z,86.00
2018-03-22T22:24:57.326Z,85.70
2018-03-22T22:27:23.544Z,85.60
2018-03-22T22:29:49.752Z,85.60
2018-03-22T22:32:15.947Z,85.90
2018-03-22T22:34:42.880Z,85.30
2018-03-22T22:37:09.086Z,85.10
2018-03-22T22:39:35.290Z,84.40
2018-03-22T22:42:01.467Z,85.10
2018-03-22T22:44:27.686Z,84.90
2018-03-22T22:46:53.852Z,85.40
2018-03-22T22:49:20.024Z,85.20
2018-03-22T22:51:46.210Z,85.30
2018-03-22T22:54:12.467Z,85.00
2018-03-22T22:56:39.427Z,85.40
2018-03-22T22:59:05.572Z,85.40
2018-03-22T23:01:31.765Z,85.80
2018-03-22T23:03:57.967Z,85.50
2018-03-22T23:06:24.175Z,84.90
2018-03-22T23:08:50.348Z,85.50
2018-03-22T23:11:16.551Z,85.40
2018-03-22T23:13:42.731Z,85.60
2018-03-22T23:16:09.690Z,85.20
2018-03-22T23:18:36.652Z,85.70
2018-03-22T23:21:02.841Z,84.90
2018-03-22T23:23:29.043Z,84.80
2018-03-22T23:25:55.290Z,84.40
2018-03-22T23:28:21.459Z,84.50
2018-03-22T23:30:47.660Z,84.50
2018-03-22T23:33:13.864Z,85.00
2018-03-22T23:35:40.093Z,84.10
2018-03-22T23:38:07.079Z,84.70
2018-03-22T23:40:33.262Z,84.60
2018-03-22T23:43:00.186Z,83.40
2018-03-22T23:45:26.388Z,83.40
2018-03-22T23:47:52.559Z,83.50
2018-03-22T23:50:19.545Z,84.10
2018-03-22T23:52:45.724Z,83.90
2018-03-22T23:55:11.915Z,84.50
2018-03-22T23:57:38.131Z,84.50
